Time;durP1;ratioP1;P1;durP2;ratioP2;P2;SDS_P1;SDS_P2;PMS_P1;PMS_P2;Temp;Humidity;BMP_temperature;BMP_pressure;BME280_temperature;BME280_humidity;BME280_pressure;Samples;Min_cycle;Max_cycle;Signal;HPM_P1;HPM_P2
2023/09/29 00:00:59;;;;;;;5.25;3.88;;;17.30;99.90;;;;;;5033513;28;20225;-59
2023/09/29 00:03:28;;;;;;;7.95;3.72;;;17.30;99.90;;;;;;5032619;28;20653;-59
2023/09/29 00:05:56;;;;;;;4.90;3.88;;;17.30;99.90;;;;;;5030292;28;20211;-59
2023/09/29 00:08:24;;;;;;;3.85;3.42;;;17.30;99.90;;;;;;5033204;28;20206;-60
2023/09/29 00:10:53;;;;;;;5.00;3.88;;;17.30;99.90;;;;;;5032262;28;20218;-59
2023/09/29 00:13:21;;;;;;;8.85;3.85;;;17.30;99.90;;;;;;5034276;28;20229;-60
2023/09/29 00:15:49;;;;;;;4.72;3.25;;;17.20;99.90;;;;;;5033975;28;20656;-60
2023/09/29 00:18:17;;;;;;;4.65;3.80;;;17.20;99.90;;;;;;5033151;28;20226;-60
2023/09/29 00:20:45;;;;;;;4.82;3.78;;;17.20;99.90;;;;;;5030904;28;20724;-60
2023/09/29 00:23:14;;;;;;;4.45;3.67;;;17.20;99.90;;;;;;5031989;28;20212;-60
2023/09/29 00:25:42;;;;;;;6.65;4.13;;;17.20;99.90;;;;;;5032169;28;20686;-58
2023/09/29 00:28:12;;;;;;;9.43;4.07;;;17.20;99.90;;;;;;5032855;28;20202;-59
2023/09/29 00:30:39;;;;;;;4.05;3.78;;;17.20;99.90;;;;;;5033096;28;20248;-59
2023/09/29 00:33:08;;;;;;;4.90;3.55;;;17.20;99.90;;;;;;5032162;28;20234;-60
2023/09/29 00:35:37;;;;;;;6.40;3.45;;;17.20;99.90;;;;;;5033445;28;20206;-59
2023/09/29 00:38:05;;;;;;;5.35;3.85;;;17.00;99.90;;;;;;5030035;28;20695;-59
2023/09/29 00:40:33;;;;;;;7.78;4.00;;;17.00;99.90;;;;;;5032920;28;20591;-60
2023/09/29 00:43:02;;;;;;;5.38;3.60;;;16.90;99.90;;;;;;5035788;28;20252;-59
2023/09/29 00:45:33;;;;;;;6.40;3.67;;;16.90;99.90;;;;;;5035304;28;20206;-60
2023/09/29 00:48:06;;;;;;;5.72;4.03;;;16.80;99.90;;;;;;5032148;28;20241;-59
2023/09/29 00:50:35;;;;;;;7.80;3.83;;;16.80;99.90;;;;;;5031128;28;20617;-60
2023/09/29 00:53:07;;;;;;;8.80;4.32;;;16.80;99.90;;;;;;5030553;28;20304;-59
2023/09/29 00:55:36;;;;;;;6.40;4.38;;;16.80;99.90;;;;;;5032600;28;20672;-60
2023/09/29 00:58:05;;;;;;;7.00;4.07;;;16.80;99.90;;;;;;5031101;28;20207;-60
2023/09/29 01:00:37;;;;;;;5.32;3.70;;;16.70;99.90;;;;;;5040660;28;20292;-60
2023/09/29 01:03:06;;;;;;;8.23;4.40;;;16.70;99.90;;;;;;5031705;28;20260;-60
2023/09/29 01:05:38;;;;;;;9.10;4.10;;;16.60;99.90;;;;;;5032394;28;20206;-59
2023/09/29 01:08:10;;;;;;;8.52;4.13;;;16.60;99.90;;;;;;5030610;28;20260;-60
2023/09/29 01:10:38;;;;;;;4.53;4.03;;;16.60;99.90;;;;;;5032082;28;20210;-60
2023/09/29 01:13:06;;;;;;;6.85;4.13;;;16.60;99.90;;;;;;5030405;28;20245;-60
2023/09/29 01:15:36;;;;;;;6.28;4.50;;;16.60;99.90;;;;;;5031949;28;20565;-58
2023/09/29 01:18:05;;;;;;;7.63;4.32;;;16.60;99.90;;;;;;5031827;28;20206;-60
2023/09/29 01:20:34;;;;;;;8.32;4.38;;;16.60;99.90;;;;;;5030225;28;20206;-58
2023/09/29 01:23:04;;;;;;;4.40;3.97;;;16.60;99.90;;;;;;5027556;28;20222;-60
2023/09/29 01:25:33;;;;;;;12.25;4.57;;;16.50;99.90;;;;;;5032318;28;20206;-60
2023/09/29 01:28:05;;;;;;;5.88;3.97;;;16.60;99.90;;;;;;5026496;28;20281;-60
2023/09/29 01:30:33;;;;;;;5.85;4.28;;;16.50;99.90;;;;;;5031672;28;20692;-59
2023/09/29 01:33:00;;;;;;;6.78;4.43;;;16.50;99.90;;;;;;5031696;28;20230;-59
2023/09/29 01:35:29;;;;;;;8.77;3.92;;;16.50;99.90;;;;;;5030870;28;20295;-60
2023/09/29 01:37:59;;;;;;;6.95;4.15;;;16.50;99.90;;;;;;5020548;28;20202;-60
2023/09/29 01:40:28;;;;;;;12.50;4.05;;;16.50;99.90;;;;;;5020178;28;20252;-59
2023/09/29 01:42:57;;;;;;;15.30;4.57;;;16.50;99.90;;;;;;5021926;28;20326;-60
2023/09/29 01:45:26;;;;;;;5.65;4.25;;;16.50;99.90;;;;;;5031078;28;20198;-59
2023/09/29 01:47:54;;;;;;;7.57;4.30;;;16.40;99.90;;;;;;5031402;28;20206;-60
2023/09/29 01:50:23;;;;;;;8.82;4.40;;;16.30;99.90;;;;;;5030655;28;20234;-59
2023/09/29 01:52:51;;;;;;;5.80;4.35;;;16.30;99.90;;;;;;5021259;28;20703;-59
2023/09/29 01:55:22;;;;;;;6.72;4.60;;;16.30;99.90;;;;;;5030984;28;20202;-60
2023/09/29 01:57:50;;;;;;;6.07;4.05;;;16.30;99.90;;;;;;5023160;28;20210;-60
2023/09/29 02:00:24;;;;;;;6.30;4.82;;;16.30;99.90;;;;;;5030392;28;20198;-59
2023/09/29 02:02:53;;;;;;;7.03;4.82;;;16.20;99.90;;;;;;5030374;28;20785;-60
2023/09/29 02:05:22;;;;;;;9.88;4.72;;;16.20;99.90;;;;;;5031181;28;20712;-58
2023/09/29 02:07:50;;;;;;;9.30;4.88;;;16.20;99.90;;;;;;5029432;28;20215;-60
2023/09/29 02:10:19;;;;;;;5.32;4.78;;;16.20;99.90;;;;;;5030310;28;20257;-59
2023/09/29 02:12:52;;;;;;;7.40;4.95;;;16.20;99.90;;;;;;5028215;28;20226;-60
2023/09/29 02:15:21;;;;;;;10.40;5.13;;;16.20;99.90;;;;;;5018066;28;20290;-59
2023/09/29 02:17:49;;;;;;;8.90;5.13;;;16.20;99.90;;;;;;5030026;28;20211;-60
2023/09/29 02:20:20;;;;;;;7.50;4.90;;;16.20;99.90;;;;;;5030054;28;20237;-58
2023/09/29 02:22:48;;;;;;;7.10;5.28;;;16.20;99.90;;;;;;5028860;28;20292;-60
2023/09/29 02:25:18;;;;;;;6.60;4.60;;;16.20;99.90;;;;;;5030237;28;20609;-60
2023/09/29 02:27:47;;;;;;;4.50;4.10;;;16.20;99.90;;;;;;5028836;28;20225;-59
2023/09/29 02:30:16;;;;;;;7.85;4.50;;;16.20;99.90;;;;;;5016302;28;20199;-59
2023/09/29 02:32:45;;;;;;;8.13;5.03;;;16.20;99.90;;;;;;5028842;28;20222;-59
2023/09/29 02:35:14;;;;;;;4.75;4.07;;;16.20;99.90;;;;;;5030903;28;20210;-59
2023/09/29 02:37:42;;;;;;;7.90;4.20;;;16.20;99.90;;;;;;5028805;28;20202;-60
2023/09/29 02:40:15;;;;;;;5.22;4.65;;;16.30;99.90;;;;;;5029678;28;20257;-60
2023/09/29 02:42:44;;;;;;;8.48;4.50;;;16.30;99.90;;;;;;5028875;28;20605;-57
2023/09/29 02:45:12;;;;;;;7.38;4.13;;;16.30;99.90;;;;;;5019190;28;20203;-59
2023/09/29 02:47:41;;;;;;;6.95;4.20;;;16.30;99.90;;;;;;5028280;28;20210;-60
2023/09/29 02:50:11;;;;;;;8.07;4.20;;;16.40;99.90;;;;;;5030479;28;20289;-60
2023/09/29 02:52:40;;;;;;;9.68;4.50;;;16.40;99.90;;;;;;5020447;28;20658;-60
2023/09/29 02:55:12;;;;;;;9.32;3.88;;;16.40;99.90;;;;;;5031828;28;20271;-58
2023/09/29 02:57:40;;;;;;;7.40;4.43;;;16.40;99.90;;;;;;5023971;28;20359;-59
2023/09/29 03:00:15;;;;;;;5.43;4.35;;;16.40;99.90;;;;;;5030404;28;20238;-60
2023/09/29 03:02:43;;;;;;;6.30;4.13;;;16.40;99.90;;;;;;5033977;28;20226;-58
2023/09/29 03:05:14;;;;;;;5.63;4.22;;;16.30;99.90;;;;;;5046532;28;20202;-59
2023/09/29 03:07:42;;;;;;;4.85;3.80;;;16.30;99.90;;;;;;5032836;28;20206;-59
2023/09/29 03:10:13;;;;;;;4.93;4.43;;;16.30;99.90;;;;;;5033278;28;20249;-58
2023/09/29 03:12:41;;;;;;;7.68;4.45;;;16.30;99.90;;;;;;5035276;28;20229;-59
2023/09/29 03:15:09;;;;;;;7.85;3.75;;;16.30;99.90;;;;;;5038325;28;20202;-61
2023/09/29 03:17:37;;;;;;;4.65;4.05;;;16.30;99.90;;;;;;5034298;28;20945;-61
2023/09/29 03:20:10;;;;;;;9.57;4.22;;;16.30;99.90;;;;;;5037707;28;20289;-61
2023/09/29 03:22:39;;;;;;;4.60;4.20;;;16.40;99.90;;;;;;5032571;28;20237;-61
2023/09/29 03:25:09;;;;;;;5.00;3.88;;;16.40;99.90;;;;;;5034340;28;20202;-61
2023/09/29 03:27:38;;;;;;;4.07;3.85;;;16.40;99.90;;;;;;5033161;28;20214;-61
2023/09/29 03:30:09;;;;;;;4.97;4.18;;;16.40;99.90;;;;;;5033863;28;20256;-60
2023/09/29 03:32:37;;;;;;;4.03;3.63;;;16.40;99.90;;;;;;5034251;28;20288;-61
2023/09/29 03:35:06;;;;;;;6.18;3.83;;;16.40;99.90;;;;;;5033482;28;20206;-61
2023/09/29 03:37:36;;;;;;;5.32;3.90;;;16.30;99.90;;;;;;5031762;28;20237;-61
2023/09/29 03:40:08;;;;;;;5.78;4.00;;;16.30;99.90;;;;;;5026034;28;20698;-61
2023/09/29 03:42:36;;;;;;;6.93;3.33;;;16.30;99.90;;;;;;5032130;28;20225;-60
2023/09/29 03:45:06;;;;;;;6.40;3.65;;;16.30;99.90;;;;;;5033369;28;20889;-61
2023/09/29 03:47:34;;;;;;;5.10;3.67;;;16.30;99.90;;;;;;5033956;28;20264;-61
2023/09/29 03:50:04;;;;;;;6.25;3.55;;;16.30;99.90;;;;;;5026090;28;20561;-61
2023/09/29 03:52:33;;;;;;;5.43;3.83;;;16.30;99.90;;;;;;5026729;28;20264;-61
2023/09/29 03:55:00;;;;;;;5.10;3.65;;;16.40;99.90;;;;;;5017242;28;20206;-61
2023/09/29 03:57:32;;;;;;;4.85;3.75;;;16.40;99.90;;;;;;5032853;28;20233;-61
2023/09/29 04:00:00;;;;;;;8.10;4.00;;;16.40;99.90;;;;;;5025963;28;20207;-61
2023/09/29 04:02:27;;;;;;;4.95;4.00;;;16.40;99.90;;;;;;5033598;28;20664;-61
2023/09/29 04:04:56;;;;;;;9.25;3.80;;;16.40;99.90;;;;;;5029051;28;20202;-61
2023/09/29 04:07:26;;;;;;;5.50;3.72;;;16.40;99.90;;;;;;5030695;28;20205;-61
2023/09/29 04:09:55;;;;;;;7.18;3.58;;;16.40;99.90;;;;;;5024996;28;20239;-61
2023/09/29 04:12:23;;;;;;;6.75;3.97;;;16.40;99.90;;;;;;5029827;28;20225;-61
2023/09/29 04:14:54;;;;;;;8.15;3.35;;;16.40;99.90;;;;;;5028839;28;20202;-61
2023/09/29 04:17:22;;;;;;;9.57;3.80;;;16.40;99.90;;;;;;5037561;28;20209;-61
2023/09/29 04:19:50;;;;;;;5.60;3.53;;;16.40;99.90;;;;;;5030820;28;21451;-61
2023/09/29 04:22:18;;;;;;;5.00;3.97;;;16.40;99.90;;;;;;5033280;28;20222;-61
2023/09/29 04:24:46;;;;;;;3.85;3.47;;;16.40;99.90;;;;;;5042074;28;20279;-61
2023/09/29 04:27:14;;;;;;;6.13;3.78;;;16.40;99.90;;;;;;5031489;28;20672;-61
2023/09/29 04:29:42;;;;;;;7.05;3.70;;;16.40;99.90;;;;;;5029844;28;20291;-60
2023/09/29 04:32:11;;;;;;;7.28;3.95;;;16.40;99.90;;;;;;5019956;28;20229;-60
2023/09/29 04:34:40;;;;;;;8.82;3.90;;;16.40;99.90;;;;;;5031535;28;20245;-61
2023/09/29 04:37:08;;;;;;;9.75;4.32;;;16.30;99.90;;;;;;5029165;28;20206;-60
2023/09/29 04:39:36;;;;;;;6.00;3.63;;;16.40;99.90;;;;;;5032079;28;20214;-60
2023/09/29 04:42:04;;;;;;;4.90;4.00;;;16.40;99.90;;;;;;5022698;28;20309;-60
2023/09/29 04:44:32;;;;;;;6.40;3.80;;;16.40;99.90;;;;;;5030827;28;20218;-60
2023/09/29 04:47:00;;;;;;;5.85;4.10;;;16.40;99.90;;;;;;5020001;28;20202;-61
2023/09/29 04:49:30;;;;;;;6.28;3.55;;;16.40;99.90;;;;;;5032064;28;20202;-60
2023/09/29 04:51:58;;;;;;;6.10;3.78;;;16.40;99.90;;;;;;5031740;28;20234;-60
2023/09/29 04:54:25;;;;;;;8.50;4.35;;;16.40;99.90;;;;;;5032576;28;20230;-60
2023/09/29 04:56:53;;;;;;;7.72;4.63;;;16.40;99.90;;;;;;5031749;28;20734;-60
2023/09/29 04:59:21;;;;;;;7.53;4.38;;;16.40;99.90;;;;;;5025131;28;20207;-60
2023/09/29 05:01:49;;;;;;;5.35;4.07;;;16.30;99.90;;;;;;5017812;28;20265;-60
2023/09/29 05:04:17;;;;;;;8.32;4.47;;;16.40;99.90;;;;;;5031596;28;20640;-60
2023/09/29 05:06:46;;;;;;;8.13;4.28;;;16.40;99.90;;;;;;5031463;28;20218;-59
2023/09/29 05:09:15;;;;;;;6.40;4.38;;;16.30;99.90;;;;;;5028457;28;20210;-59
2023/09/29 05:11:43;;;;;;;12.70;4.60;;;16.30;99.90;;;;;;5031004;28;20647;-60
2023/09/29 05:14:11;;;;;;;5.95;4.35;;;16.30;99.90;;;;;;5042126;28;20201;-60
2023/09/29 05:16:39;;;;;;;10.65;4.53;;;16.30;99.90;;;;;;5035195;28;20203;-60
2023/09/29 05:19:07;;;;;;;8.57;4.70;;;16.30;99.90;;;;;;5034786;28;20209;-60
2023/09/29 05:21:36;;;;;;;4.63;4.10;;;16.30;99.90;;;;;;5033333;28;20233;-61
2023/09/29 05:24:06;;;;;;;10.57;5.03;;;16.30;99.90;;;;;;5033368;28;20226;-60
2023/09/29 05:26:34;;;;;;;6.70;4.88;;;16.30;99.90;;;;;;5029702;28;20211;-60
2023/09/29 05:29:02;;;;;;;6.82;4.18;;;16.30;99.90;;;;;;5029244;28;20206;-60
2023/09/29 05:31:30;;;;;;;9.63;5.03;;;16.30;99.90;;;;;;5031812;28;20253;-63
2023/09/29 05:33:58;;;;;;;7.97;4.78;;;16.30;99.90;;;;;;5037146;28;20198;-63
2023/09/29 05:36:27;;;;;;;9.85;5.20;;;16.30;99.90;;;;;;5031759;28;20272;-63
2023/09/29 05:38:55;;;;;;;7.60;4.60;;;16.30;99.90;;;;;;5031355;28;20280;-63
2023/09/29 05:41:24;;;;;;;9.13;5.10;;;16.30;99.90;;;;;;5031168;28;20598;-63
2023/09/29 05:43:52;;;;;;;7.78;4.78;;;16.30;99.90;;;;;;5029363;28;20230;-63
2023/09/29 05:46:20;;;;;;;8.02;4.03;;;16.30;99.90;;;;;;5036809;28;20287;-61
2023/09/29 05:48:48;;;;;;;6.72;4.50;;;16.30;99.90;;;;;;5031127;28;20315;-62
2023/09/29 05:51:16;;;;;;;7.63;4.50;;;16.30;99.90;;;;;;5031384;28;20230;-62
2023/09/29 05:53:44;;;;;;;12.30;4.35;;;16.40;99.90;;;;;;5032369;28;20198;-62
2023/09/29 05:56:13;;;;;;;5.68;4.50;;;16.40;99.90;;;;;;5037955;28;20202;-62
2023/09/29 05:58:42;;;;;;;7.20;4.45;;;16.40;99.90;;;;;;5036855;28;20289;-61
2023/09/29 06:01:10;;;;;;;7.70;4.50;;;16.40;99.90;;;;;;5022752;28;20613;-62
2023/09/29 06:03:40;;;;;;;10.07;4.65;;;16.40;99.90;;;;;;5038987;28;20248;-62
2023/09/29 06:06:08;;;;;;;6.22;4.43;;;16.40;99.90;;;;;;5036842;28;20290;-61
2023/09/29 06:08:37;;;;;;;7.65;5.15;;;16.30;99.90;;;;;;5025781;28;20714;-61
2023/09/29 06:11:22;;;;;;;6.78;4.60;;;16.40;99.90;;;;;;5031673;28;20268;-62
2023/09/29 06:13:51;;;;;;;5.50;4.22;;;16.40;99.90;;;;;;5033352;28;20596;-61
2023/09/29 06:16:19;;;;;;;5.78;4.30;;;16.40;99.90;;;;;;5031149;28;20663;-62
2023/09/29 06:18:47;;;;;;;7.55;4.30;;;16.50;99.90;;;;;;5031014;28;20210;-61
2023/09/29 06:21:16;;;;;;;6.40;4.38;;;16.50;99.90;;;;;;5029255;28;20230;-61
2023/09/29 06:23:44;;;;;;;7.03;4.93;;;16.50;99.90;;;;;;5030353;28;20226;-61
2023/09/29 06:26:12;;;;;;;12.18;5.43;;;16.50;99.90;;;;;;5030450;28;20202;-62
2023/09/29 06:28:40;;;;;;;7.05;5.43;;;16.50;99.90;;;;;;5029925;28;20663;-61
2023/09/29 06:31:10;;;;;;;7.32;5.53;;;16.60;99.90;;;;;;5028884;28;20222;-61
2023/09/29 06:33:38;;;;;;;6.22;5.63;;;16.60;99.90;;;;;;5030213;28;20238;-62
2023/09/29 06:36:06;;;;;;;8.30;6.35;;;16.70;99.90;;;;;;5030032;28;20279;-61
2023/09/29 06:38:34;;;;;;;7.10;5.88;;;16.70;99.90;;;;;;5030641;28;20588;-61
2023/09/29 06:41:02;;;;;;;13.05;7.20;;;16.80;99.90;;;;;;5030737;28;20233;-61
2023/09/29 06:43:30;;;;;;;14.18;6.57;;;16.90;99.90;;;;;;5030997;28;20241;-61
2023/09/29 06:45:58;;;;;;;12.35;7.32;;;16.90;99.90;;;;;;5030387;28;20233;-62
2023/09/29 06:48:30;;;;;;;15.13;8.15;;;17.00;99.90;;;;;;5030620;28;20210;-62
2023/09/29 06:50:59;;;;;;;12.23;7.72;;;17.00;99.90;;;;;;5029553;28;20707;-61
2023/09/29 06:53:29;;;;;;;15.00;9.07;;;17.00;99.90;;;;;;5024085;28;20712;-62
2023/09/29 06:55:59;;;;;;;15.07;8.55;;;17.10;99.90;;;;;;5030486;28;20199;-61
2023/09/29 06:58:26;;;;;;;10.85;8.60;;;17.10;99.90;;;;;;5030541;28;20210;-62
2023/09/29 07:00:56;;;;;;;14.57;8.85;;;17.20;99.90;;;;;;5030801;28;20320;-62
2023/09/29 07:03:31;;;;;;;13.88;9.25;;;17.30;99.90;;;;;;5030288;28;20213;-61
2023/09/29 07:06:00;;;;;;;9.35;8.20;;;17.40;99.90;;;;;;5030474;28;20258;-62
2023/09/29 07:08:28;;;;;;;10.77;8.38;;;17.40;99.90;;;;;;5030236;28;20267;-62
2023/09/29 07:10:56;;;;;;;12.63;8.30;;;17.50;99.90;;;;;;5030352;28;20230;-62
2023/09/29 07:13:24;;;;;;;10.73;8.27;;;17.50;99.90;;;;;;5030496;28;20564;-61
2023/09/29 07:15:53;;;;;;;12.43;7.35;;;17.50;99.90;;;;;;5030695;28;20256;-61
2023/09/29 07:18:21;;;;;;;10.38;8.48;;;17.60;99.90;;;;;;5029011;28;20654;-62
2023/09/29 07:20:52;;;;;;;10.85;8.02;;;17.60;99.90;;;;;;5029468;28;20214;-61
2023/09/29 07:23:20;;;;;;;12.98;8.55;;;17.60;99.90;;;;;;5030092;28;20206;-61
2023/09/29 07:25:48;;;;;;;11.82;8.20;;;17.70;99.90;;;;;;5030105;28;20654;-61
2023/09/29 07:28:16;;;;;;;15.65;9.23;;;17.80;99.90;;;;;;5030349;28;20735;-61
2023/09/29 07:30:44;;;;;;;16.38;9.80;;;17.90;99.90;;;;;;5030207;28;20225;-61
2023/09/29 07:33:12;;;;;;;14.32;9.75;;;18.00;99.90;;;;;;5028652;28;20206;-62
2023/09/29 07:35:40;;;;;;;12.65;8.85;;;18.10;99.90;;;;;;5028193;28;20198;-61
2023/09/29 07:38:10;;;;;;;20.27;9.63;;;18.10;99.90;;;;;;5030232;28;20622;-61
2023/09/29 07:40:38;;;;;;;12.63;8.55;;;18.20;99.90;;;;;;5030135;28;20300;-61
2023/09/29 07:43:06;;;;;;;10.13;8.15;;;18.20;99.90;;;;;;5033367;28;20242;-61
2023/09/29 07:45:34;;;;;;;16.10;7.97;;;18.30;99.90;;;;;;5033779;28;20774;-61
2023/09/29 07:48:02;;;;;;;12.32;7.50;;;18.30;99.90;;;;;;5033233;28;20763;-61
2023/09/29 07:50:30;;;;;;;13.13;7.50;;;18.40;99.90;;;;;;5033676;28;20206;-61
2023/09/29 07:52:58;;;;;;;10.25;7.72;;;18.40;99.90;;;;;;5033835;28;20273;-60
2023/09/29 07:55:27;;;;;;;15.95;8.18;;;18.50;99.90;;;;;;5041719;28;20198;-61
2023/09/29 07:57:56;;;;;;;8.57;7.35;;;18.50;99.90;;;;;;5033091;28;20206;-61
2023/09/29 08:00:24;;;;;;;12.30;7.20;;;18.60;99.90;;;;;;5033342;28;20260;-61
2023/09/29 08:02:52;;;;;;;11.63;7.88;;;18.80;99.90;;;;;;5033053;28;20726;-61
2023/09/29 08:05:20;;;;;;;12.75;7.60;;;19.00;99.90;;;;;;5032685;28;20222;-61
2023/09/29 08:07:48;;;;;;;11.48;6.95;;;19.20;99.90;;;;;;5033778;28;20296;-61
2023/09/29 08:10:16;;;;;;;15.90;8.20;;;19.20;99.90;;;;;;5033311;28;20293;-61
2023/09/29 08:12:45;;;;;;;9.15;6.97;;;19.30;99.90;;;;;;5040811;28;20316;-61
2023/09/29 08:15:14;;;;;;;13.77;7.07;;;19.50;99.90;;;;;;5036364;28;20236;-61
2023/09/29 08:17:43;;;;;;;7.82;6.85;;;19.60;99.90;;;;;;5037270;28;20664;-61
2023/09/29 08:20:14;;;;;;;13.85;6.90;;;19.70;99.90;;;;;;5032497;28;20206;-61
2023/09/29 08:22:42;;;;;;;11.75;6.63;;;19.80;99.90;;;;;;5040480;28;20264;-61
2023/09/29 08:25:10;;;;;;;13.43;6.32;;;19.80;99.90;;;;;;5032838;28;20238;-61
2023/09/29 08:27:39;;;;;;;10.35;6.25;;;19.90;99.90;;;;;;5031620;28;20263;-62
2023/09/29 08:30:09;;;;;;;9.93;6.47;;;19.90;99.90;;;;;;5034979;28;20683;-61
2023/09/29 08:32:38;;;;;;;7.18;6.20;;;19.90;99.90;;;;;;5038422;28;20244;-64
2023/09/29 08:35:07;;;;;;;16.27;7.20;;;19.90;99.90;;;;;;5032718;28;20210;-61
2023/09/29 08:37:35;;;;;;;15.15;6.80;;;19.90;99.90;;;;;;5033011;28;20206;-60
2023/09/29 08:40:04;;;;;;;9.27;5.72;;;19.90;99.90;;;;;;5031814;28;20245;-61
2023/09/29 08:42:35;;;;;;;13.20;6.47;;;19.90;99.90;;;;;;5032715;28;20308;-61
2023/09/29 08:45:04;;;;;;;12.30;6.53;;;19.80;99.90;;;;;;5031531;28;20237;-62
2023/09/29 08:47:34;;;;;;;10.95;6.50;;;19.70;99.90;;;;;;5031923;28;20199;-61
2023/09/29 08:50:03;;;;;;;13.70;6.68;;;19.80;99.90;;;;;;5031885;28;20210;-61
2023/09/29 08:52:32;;;;;;;11.57;6.60;;;20.00;99.90;;;;;;5031994;28;20230;-62
2023/09/29 08:55:00;;;;;;;11.02;7.07;;;20.20;99.90;;;;;;5030958;28;20206;-61
2023/09/29 08:57:28;;;;;;;11.82;6.88;;;20.40;99.90;;;;;;5034194;28;20664;-62
2023/09/29 08:59:58;;;;;;;14.88;6.97;;;20.60;99.90;;;;;;5035244;28;20216;-61
2023/09/29 09:02:26;;;;;;;13.18;6.55;;;20.90;99.90;;;;;;5032455;28;20738;-61
2023/09/29 09:04:56;;;;;;;12.18;6.40;;;21.00;99.90;;;;;;5032409;28;20237;-61
2023/09/29 09:07:24;;;;;;;9.82;6.20;;;21.20;99.90;;;;;;5039063;28;20309;-62
2023/09/29 09:09:55;;;;;;;14.10;6.97;;;21.20;99.90;;;;;;5031204;28;20703;-62
2023/09/29 09:12:31;;;;;;;12.45;6.63;;;21.20;99.90;;;;;;5039894;28;20226;-62
2023/09/29 09:14:59;;;;;;;13.98;7.10;;;21.20;99.90;;;;;;5032538;28;20244;-61
2023/09/29 09:17:28;;;;;;;6.90;6.18;;;21.30;99.90;;;;;;5031685;28;20198;-62
2023/09/29 09:19:57;;;;;;;13.73;7.25;;;21.50;99.90;;;;;;5031929;28;20672;-61
2023/09/29 09:22:27;;;;;;;12.18;6.60;;;21.80;99.90;;;;;;5032046;28;20222;-61
2023/09/29 09:25:12;;;;;;;8.15;6.40;;;22.10;99.90;;;;;;5032017;28;20634;-62
2023/09/29 09:27:41;;;;;;;6.78;5.45;;;22.60;99.90;;;;;;5032155;28;20210;-62
2023/09/29 09:30:21;;;;;;;12.23;6.15;;;23.10;99.90;;;;;;5031037;28;20210;-62
2023/09/29 09:32:49;;;;;;;10.85;5.80;;;23.60;99.90;;;;;;5031749;28;20229;-62
2023/09/29 09:35:25;;;;;;;10.70;5.88;;;23.90;99.90;;;;;;5031585;28;20303;-63
2023/09/29 09:37:53;;;;;;;11.32;5.97;;;24.00;99.90;;;;;;5041597;28;20231;-62
2023/09/29 09:40:22;;;;;;;10.10;5.40;;;24.00;99.90;;;;;;5039166;28;20297;-62
2023/09/29 09:42:49;;;;;;;11.30;5.38;;;24.10;99.90;;;;;;5036998;28;20680;-63
2023/09/29 09:45:17;;;;;;;14.48;5.50;;;24.30;99.90;;;;;;5037926;28;20285;-62
2023/09/29 09:47:46;;;;;;;6.45;5.00;;;24.40;99.90;;;;;;5030915;28;20238;-62
2023/09/29 09:50:14;;;;;;;15.02;5.43;;;24.50;99.90;;;;;;5030490;28;20297;-63
2023/09/29 09:52:44;;;;;;;12.48;4.93;;;24.60;99.90;;;;;;5031261;28;20261;-63
2023/09/29 09:55:15;;;;;;;11.40;6.00;;;24.90;99.90;;;;;;5028024;28;20667;-63
2023/09/29 09:57:45;;;;;;;7.47;5.38;;;24.90;99.90;;;;;;5036785;28;20202;-63
2023/09/29 10:00:14;;;;;;;12.35;5.43;;;24.90;99.90;;;;;;5036263;28;20573;-63
2023/09/29 10:02:43;;;;;;;8.13;4.53;;;25.10;99.90;;;;;;5030440;28;20257;-63
2023/09/29 10:05:16;;;;;;;7.57;4.70;;;25.40;99.90;;;;;;5029462;28;20754;-62
2023/09/29 10:07:48;;;;;;;8.55;4.50;;;25.80;99.90;;;;;;5031296;28;20221;-63
2023/09/29 10:10:28;;;;;;;12.32;4.88;;;26.00;99.90;;;;;;5030691;28;20287;-63
2023/09/29 10:12:56;;;;;;;14.60;4.82;;;26.20;99.90;;;;;;5039452;28;20722;-63
2023/09/29 10:15:29;;;;;;;15.35;5.13;;;26.50;99.90;;;;;;5033704;28;20206;-62
2023/09/29 10:17:58;;;;;;;6.68;4.35;;;26.90;99.90;;;;;;5032844;28;20206;-61
2023/09/29 10:20:29;;;;;;;10.52;4.53;;;26.80;99.90;;;;;;5030250;28;20758;-63
2023/09/29 10:23:06;;;;;;;9.13;4.22;;;26.20;99.90;;;;;;5031030;28;20368;-61
2023/09/29 10:25:36;;;;;;;8.93;4.68;;;26.20;99.90;;;;;;5030854;28;20288;-63
2023/09/29 10:28:06;;;;;;;12.23;4.70;;;25.90;99.90;;;;;;5032853;28;20671;-62
2023/09/29 10:30:34;;;;;;;10.60;5.13;;;25.90;99.90;;;;;;5030912;28;20214;-62
2023/09/29 10:33:06;;;;;;;6.38;4.28;;;25.80;99.90;;;;;;5030608;28;20307;-62
2023/09/29 10:35:35;;;;;;;8.43;4.55;;;25.70;99.90;;;;;;5031014;28;20214;-63
2023/09/29 10:38:12;;;;;;;5.93;4.28;;;25.60;99.90;;;;;;5031218;28;20210;-63
2023/09/29 10:40:41;;;;;;;9.55;4.80;;;25.50;99.90;;;;;;5030611;28;20272;-63
2023/09/29 10:43:10;;;;;;;7.32;4.10;;;25.60;99.90;;;;;;5030988;28;20214;-63
2023/09/29 10:45:37;;;;;;;7.00;4.50;;;25.70;99.90;;;;;;5030399;28;20238;-63
2023/09/29 10:48:07;;;;;;;5.65;4.00;;;25.70;99.90;;;;;;5031074;28;20248;-63
2023/09/29 10:50:42;;;;;;;7.93;4.30;;;25.70;99.90;;;;;;5029128;28;20202;-62
2023/09/29 10:53:12;;;;;;;8.05;4.47;;;25.70;99.90;;;;;;5030851;28;20280;-66
2023/09/29 10:55:44;;;;;;;4.43;3.90;;;25.90;99.90;;;;;;5030123;28;20206;-62
2023/09/29 10:58:12;;;;;;;4.57;3.70;;;26.40;99.90;;;;;;5030014;28;20229;-62
2023/09/29 11:00:46;;;;;;;7.75;3.75;;;26.80;99.90;;;;;;5030058;28;20672;-62
2023/09/29 11:03:15;;;;;;;8.45;4.18;;;26.90;99.90;;;;;;5030412;28;20212;-62
2023/09/29 11:05:48;;;;;;;7.55;4.15;;;27.10;99.90;;;;;;5029828;28;20746;-61
2023/09/29 11:08:19;;;;;;;9.82;3.92;;;27.70;99.90;;;;;;5030205;28;20718;-62
2023/09/29 11:10:55;;;;;;;8.82;4.22;;;28.40;99.90;;;;;;5029039;28;20202;-53
2023/09/29 11:13:23;;;;;;;6.57;4.00;;;28.70;99.90;;;;;;5030417;28;20201;-53
2023/09/29 11:15:51;;;;;;;7.38;3.95;;;29.00;99.90;;;;;;5031561;28;20725;-55
2023/09/29 11:18:27;;;;;;;8.32;3.50;;;29.10;99.90;;;;;;5034291;28;20752;-54
2023/09/29 11:20:56;;;;;;;9.15;2.95;;;29.60;99.90;;;;;;5034064;28;20319;-52
2023/09/29 11:23:27;;;;;;;3.58;2.63;;;29.80;99.90;;;;;;5033078;28;20202;-52
2023/09/29 11:25:57;;;;;;;5.30;2.90;;;29.90;99.90;;;;;;5033944;28;20676;-52
2023/09/29 11:28:26;;;;;;;3.22;2.83;;;30.00;99.90;;;;;;5033838;28;20672;-54
2023/09/29 11:30:55;;;;;;;4.72;2.88;;;30.10;99.90;;;;;;5033864;28;20289;-52
2023/09/29 11:33:25;;;;;;;6.32;2.92;;;30.00;99.90;;;;;;5033364;28;20671;-52
2023/09/29 11:35:53;;;;;;;5.50;3.10;;;29.90;99.90;;;;;;5031916;28;20323;-53
2023/09/29 11:38:34;;;;;;;8.55;3.60;;;29.60;99.90;;;;;;5036778;28;20198;-52
2023/09/29 11:41:02;;;;;;;5.25;2.78;;;29.40;99.90;;;;;;5033434;28;20225;-53
2023/09/29 11:43:30;;;;;;;4.45;2.80;;;29.60;99.90;;;;;;5034103;28;20210;-53
2023/09/29 11:45:58;;;;;;;5.82;2.70;;;30.00;99.90;;;;;;5033611;28;20618;-67
2023/09/29 11:48:26;;;;;;;3.60;2.80;;;30.10;99.90;;;;;;5032214;28;20237;-61
2023/09/29 11:50:54;;;;;;;5.15;3.20;;;30.50;99.90;;;;;;5032152;28;20667;-61
2023/09/29 11:53:22;;;;;;;6.45;3.20;;;30.80;99.90;;;;;;5034023;28;20777;-62
2023/09/29 11:55:51;;;;;;;4.85;3.00;;;31.00;99.90;;;;;;5034827;28;20210;-61
2023/09/29 11:58:19;;;;;;;4.10;2.53;;;30.90;99.90;;;;;;5040556;28;20226;-61
2023/09/29 12:00:47;;;;;;;5.60;2.80;;;31.10;99.90;;;;;;5038140;28;20206;-61
2023/09/29 12:03:17;;;;;;;3.35;3.05;;;31.20;99.90;;;;;;5032149;28;20202;-61
2023/09/29 12:05:46;;;;;;;4.57;3.20;;;30.70;99.90;;;;;;5033486;28;20680;-61
2023/09/29 12:08:14;;;;;;;2.72;2.53;;;29.80;99.90;;;;;;5033630;28;20595;-61
2023/09/29 12:10:42;;;;;;;4.47;2.83;;;28.40;99.90;;;;;;5032495;28;20874;-61
2023/09/29 12:13:13;;;;;;;6.25;3.00;;;28.30;99.90;;;;;;5034016;28;20234;-61
2023/09/29 12:15:41;;;;;;;4.70;3.10;;;27.90;99.90;;;;;;5032686;28;20679;-61
2023/09/29 12:18:09;;;;;;;3.83;3.50;;;27.40;99.90;;;;;;5033412;28;20229;-60
2023/09/29 12:20:38;;;;;;;4.53;3.10;;;27.00;99.90;;;;;;5032684;28;20206;-61
2023/09/29 12:23:08;;;;;;;2.70;2.47;;;26.70;99.90;;;;;;5033429;28;20209;-61
2023/09/29 12:25:36;;;;;;;3.72;2.58;;;26.40;99.90;;;;;;5032918;28;20225;-61
2023/09/29 12:28:05;;;;;;;6.50;3.05;;;26.20;99.90;;;;;;5032432;28;20226;-61
2023/09/29 12:30:34;;;;;;;5.97;2.63;;;26.10;99.90;;;;;;5033212;28;20198;-61
2023/09/29 12:33:03;;;;;;;3.90;2.63;;;25.90;99.90;;;;;;5033100;28;20241;-61
2023/09/29 12:35:32;;;;;;;3.83;2.58;;;25.80;99.90;;;;;;5033071;28;20206;-61
2023/09/29 12:38:00;;;;;;;5.00;2.22;;;25.70;99.90;;;;;;5033468;28;20206;-61
2023/09/29 12:40:28;;;;;;;2.97;1.80;;;25.60;99.90;;;;;;5032704;28;20292;-61
2023/09/29 12:42:59;;;;;;;4.18;2.22;;;25.40;99.90;;;;;;5033414;28;20652;-60
2023/09/29 12:45:27;;;;;;;4.05;2.30;;;25.30;99.90;;;;;;5032860;28;20230;-61
2023/09/29 12:47:57;;;;;;;3.42;2.58;;;25.10;99.90;;;;;;5032405;28;20218;-60
2023/09/29 12:50:25;;;;;;;9.18;2.88;;;24.90;99.90;;;;;;5032530;28;20216;-60
2023/09/29 12:52:54;;;;;;;11.45;3.45;;;24.70;99.90;;;;;;5032959;28;20264;-61